createdAt,value
2018-06-11T00:00:59.460Z,48.70
2018-06-11T00:02:04.792Z,49.40
2018-06-11T00:03:09.640Z,48.70
2018-06-11T00:04:14.666Z,48.70
2018-06-11T00:05:19.494Z,48.70
2018-06-11T00:06:24.493Z,48.70
2018-06-11T00:07:29.506Z,48.70
2018-06-11T00:08:34.474Z,48.70
2018-06-11T00:09:39.437Z,48.70
2018-06-11T00:10:44.281Z,48.70
2018-06-11T00:11:49.196Z,48.70
2018-06-11T00:12:54.128Z,48.70
2018-06-11T00:13:59.176Z,48.70
2018-06-11T00:15:04.294Z,48.80
2018-06-11T00:16:09.424Z,48.80
2018-06-11T00:17:14.535Z,48.70
2018-06-11T00:18:20.194Z,48.70
2018-06-11T00:19:25.200Z,48.70
2018-06-11T00:20:30.808Z,48.70
2018-06-11T00:21:35.807Z,48.70
2018-06-11T00:22:40.773Z,48.60
2018-06-11T00:23:46.421Z,48.60
2018-06-11T00:24:51.312Z,48.70
2018-06-11T00:25:56.239Z,48.60
2018-06-11T00:27:01.328Z,48.50
2018-06-11T00:28:06.114Z,48.50
2018-06-11T00:29:11.137Z,48.50
2018-06-11T00:30:16.075Z,48.40
2018-06-11T00:31:21.838Z,48.50
2018-06-11T00:32:26.641Z,48.40
2018-06-11T00:33:31.438Z,48.30
2018-06-11T00:34:36.484Z,48.30
2018-06-11T00:35:41.424Z,48.30
2018-06-11T00:36:46.432Z,48.30
2018-06-11T00:37:51.375Z,48.20
2018-06-11T00:38:56.458Z,48.30
2018-06-11T00:40:01.449Z,48.10
2018-06-11T00:41:06.241Z,48.00
2018-06-11T00:42:11.223Z,48.00
2018-06-11T00:43:16.240Z,47.90
2018-06-11T00:44:21.274Z,47.80
2018-06-11T00:45:26.236Z,47.80
2018-06-11T00:46:31.154Z,47.80
2018-06-11T00:47:36.178Z,47.70
2018-06-11T00:48:41.056Z,47.70
2018-06-11T00:49:46.002Z,47.60
2018-06-11T00:50:51.438Z,47.60
2018-06-11T00:51:56.190Z,47.50
2018-06-11T00:53:00.950Z,47.40
2018-06-11T00:54:06.251Z,47.40
2018-06-11T00:55:11.185Z,47.40
2018-06-11T00:56:16.133Z,47.30
2018-06-11T00:57:21.048Z,47.20
2018-06-11T00:58:25.912Z,47.10
2018-06-11T00:59:31.439Z,47.10
2018-06-11T01:00:36.291Z,47.00
2018-06-11T01:01:41.273Z,47.10
2018-06-11T01:02:46.108Z,47.00
2018-06-11T01:03:50.856Z,46.90
2018-06-11T01:04:55.853Z,46.80
2018-06-11T01:06:00.830Z,46.70
2018-06-11T01:07:06.413Z,46.80
2018-06-11T01:08:11.322Z,46.60
2018-06-11T01:09:16.188Z,46.60
2018-06-11T01:10:21.223Z,46.60
2018-06-11T01:11:26.102Z,46.50
2018-06-11T01:12:30.875Z,46.50
2018-06-11T01:13:35.856Z,46.40
2018-06-11T01:14:41.211Z,46.40
2018-06-11T01:15:46.052Z,46.40
2018-06-11T01:16:50.813Z,46.40
2018-06-11T01:17:55.860Z,46.40
2018-06-11T01:19:00.854Z,46.30
2018-06-11T01:20:05.661Z,46.20
2018-06-11T01:21:10.603Z,46.10
2018-06-11T01:22:15.493Z,46.00
2018-06-11T01:23:20.474Z,45.80
2018-06-11T01:24:25.207Z,45.70
2018-06-11T01:25:30.104Z,45.60
2018-06-11T01:26:35.014Z,45.50
2018-06-11T01:27:40.025Z,45.50
2018-06-11T01:28:44.873Z,45.50
2018-06-11T01:29:49.811Z,45.50
2018-06-11T01:30:54.926Z,45.30
2018-06-11T01:31:59.883Z,45.10
2018-06-11T01:33:04.770Z,44.90
2018-06-11T01:34:09.654Z,44.80
2018-06-11T01:35:14.600Z,44.80
2018-06-11T01:36:20.036Z,44.70
2018-06-11T01:37:24.926Z,44.80
2018-06-11T01:38:30.069Z,44.90
2018-06-11T01:39:34.910Z,44.70
2018-06-11T01:40:40.030Z,44.60
2018-06-11T01:41:44.880Z,44.50
2018-06-11T01:42:49.998Z,44.40
2018-06-11T01:43:54.986Z,44.40
2018-06-11T01:45:00.048Z,44.30
2018-06-11T01:46:05.172Z,44.30
2018-06-11T01:47:10.165Z,44.30
2018-06-11T01:48:14.982Z,44.20
2018-06-11T01:49:19.866Z,44.20
2018-06-11T01:50:24.828Z,44.20
2018-06-11T01:51:29.671Z,44.10
2018-06-11T01:52:34.683Z,44.10
2018-06-11T01:53:39.577Z,44.10
2018-06-11T01:54:44.622Z,44.10
2018-06-11T01:55:49.628Z,44.10
2018-06-11T01:56:54.769Z,44.10
2018-06-11T01:57:59.778Z,44.10
2018-06-11T01:59:04.708Z,44.10
2018-06-11T02:00:09.491Z,44.10
2018-06-11T02:01:14.321Z,44.00
2018-06-11T02:02:19.275Z,44.00
2018-06-11T02:03:24.630Z,44.00
2018-06-11T02:04:29.584Z,44.10
2018-06-11T02:05:34.472Z,44.00
2018-06-11T02:06:39.453Z,44.10
2018-06-11T02:07:44.392Z,44.10
2018-06-11T02:08:49.403Z,44.00
2018-06-11T02:09:54.314Z,44.00
2018-06-11T02:10:59.059Z,44.10
2018-06-11T02:12:04.042Z,44.20
2018-06-11T02:13:08.919Z,44.10
2018-06-11T02:14:13.908Z,44.00
2018-06-11T02:15:18.806Z,43.90
2018-06-11T02:16:23.762Z,43.90
2018-06-11T02:17:28.792Z,44.00
2018-06-11T02:18:34.226Z,44.10
2018-06-11T02:19:39.118Z,44.00
2018-06-11T02:20:44.107Z,43.90
2018-06-11T02:21:49.810Z,43.80
2018-06-11T02:22:54.576Z,43.70
2018-06-11T02:23:59.547Z,43.70
2018-06-11T02:25:04.397Z,43.70
2018-06-11T02:26:09.446Z,43.70
2018-06-11T02:27:14.425Z,43.80
2018-06-11T02:28:19.403Z,43.70
2018-06-11T02:29:24.445Z,43.70
2018-06-11T02:30:29.511Z,43.60
2018-06-11T02:31:34.399Z,43.50
2018-06-11T02:32:39.381Z,43.50
2018-06-11T02:33:44.366Z,43.40
2018-06-11T02:34:49.904Z,43.40
2018-06-11T02:35:54.867Z,43.40
2018-06-11T02:36:59.893Z,43.40
2018-06-11T02:38:04.888Z,43.30
2018-06-11T02:39:09.747Z,43.30
2018-06-11T02:40:14.699Z,43.40
2018-06-11T02:41:19.602Z,43.40
2018-06-11T02:42:24.472Z,43.30
2018-06-11T02:43:29.566Z,43.30
2018-06-11T02:44:34.339Z,43.30
2018-06-11T02:45:39.308Z,43.30
2018-06-11T02:46:44.371Z,43.30
2018-06-11T02:47:49.169Z,43.30
2018-06-11T02:48:54.269Z,43.30
2018-06-11T02:49:59.215Z,43.40
2018-06-11T02:51:04.102Z,43.40
2018-06-11T02:52:09.154Z,43.40
2018-06-11T02:53:14.189Z,43.50
2018-06-11T02:54:19.901Z,43.40
2018-06-11T02:55:24.869Z,43.30
2018-06-11T02:56:29.883Z,43.30
2018-06-11T02:57:34.994Z,43.30
2018-06-11T02:58:39.819Z,43.30
2018-06-11T02:59:44.784Z,43.30
2018-06-11T03:00:49.667Z,43.30
2018-06-11T03:01:54.500Z,43.30
2018-06-11T03:02:59.337Z,43.30
2018-06-11T03:04:04.332Z,43.20
2018-06-11T03:05:09.210Z,43.20
2018-06-11T03:06:14.017Z,43.20
2018-06-11T03:07:19.926Z,43.20
2018-06-11T03:08:24.921Z,43.20
2018-06-11T03:09:29.918Z,43.20
2018-06-11T03:10:34.825Z,43.30
2018-06-11T03:11:39.894Z,43.30
2018-06-11T03:12:44.946Z,43.20
2018-06-11T03:13:49.967Z,43.20
2018-06-11T03:14:55.669Z,43.20
2018-06-11T03:16:00.638Z,43.20
2018-06-11T03:17:05.463Z,43.20
2018-06-11T03:18:10.261Z,43.30
2018-06-11T03:19:15.064Z,43.20
2018-06-11T03:20:20.077Z,43.20
2018-06-11T03:21:24.839Z,43.20
2018-06-11T03:22:29.766Z,43.20
2018-06-11T03:23:34.668Z,43.20
2018-06-11T03:24:40.069Z,43.20
2018-06-11T03:25:45.100Z,43.30
2018-06-11T03:26:50.573Z,43.30
2018-06-11T03:27:55.354Z,43.30
2018-06-11T03:29:00.378Z,43.10
2018-06-11T03:30:05.301Z,43.30
2018-06-11T03:31:10.276Z,43.30
2018-06-11T03:32:16.278Z,43.30
2018-06-11T03:33:21.747Z,43.30
2018-06-11T03:34:26.676Z,43.30
2018-06-11T03:35:31.463Z,43.30
2018-06-11T03:36:36.235Z,43.30
2018-06-11T03:37:41.044Z,43.30
2018-06-11T03:38:46.811Z,43.20
2018-06-11T03:39:51.559Z,43.30
2018-06-11T03:40:57.381Z,43.30
2018-06-11T03:42:02.257Z,43.30
2018-06-11T03:44:54.074Z,43.20
2018-06-11T03:45:58.941Z,43.20
2018-06-11T03:47:03.866Z,43.20
2018-06-11T03:48:08.805Z,43.30
2018-06-11T03:49:13.665Z,43.30
2018-06-11T03:50:18.559Z,43.30
2018-06-11T03:51:23.481Z,43.40
2018-06-11T03:52:28.451Z,43.40
2018-06-11T03:53:33.266Z,43.50
2018-06-11T03:54:38.178Z,43.40
2018-06-11T03:55:43.712Z,43.50
2018-06-11T03:56:49.805Z,43.40
2018-06-11T03:58:05.846Z,43.50
2018-06-11T03:59:10.841Z,43.40
2018-06-11T04:00:16.512Z,43.50
2018-06-11T04:01:21.434Z,43.50
2018-06-11T04:02:26.255Z,43.50
2018-06-11T04:03:31.300Z,43.60
2018-06-11T04:04:36.270Z,43.60
2018-06-11T04:05:41.074Z,43.50
2018-06-11T04:06:46.128Z,43.60
2018-06-11T04:07:50.969Z,43.50
2018-06-11T04:08:55.962Z,43.60
2018-06-11T04:10:00.821Z,43.60
2018-06-11T04:11:05.950Z,43.70
2018-06-11T04:12:11.310Z,43.70
2018-06-11T04:13:16.129Z,43.80
2018-06-11T04:14:20.994Z,43.80
2018-06-11T04:15:26.166Z,43.90
2018-06-11T04:16:32.314Z,43.90
2018-06-11T04:17:37.343Z,44.00
2018-06-11T04:18:42.921Z,44.00
2018-06-11T04:19:48.087Z,44.10
2018-06-11T04:20:52.968Z,44.10
2018-06-11T04:21:58.046Z,44.20
2018-06-11T04:23:03.644Z,44.80
2018-06-11T04:24:09.480Z,44.20
2018-06-11T04:25:14.443Z,44.20
2018-06-11T04:26:19.478Z,44.20
2018-06-11T04:27:24.361Z,44.20
2018-06-11T04:28:29.287Z,44.20
2018-06-11T04:29:34.234Z,44.20
2018-06-11T04:30:39.098Z,44.30
2018-06-11T04:31:44.056Z,44.30
2018-06-11T04:32:48.935Z,44.30
2018-06-11T04:33:53.937Z,44.30
2018-06-11T04:34:58.816Z,44.30
2018-06-11T04:36:03.799Z,44.40
2018-06-11T04:37:08.688Z,44.40
2018-06-11T04:38:14.345Z,44.40
2018-06-11T04:39:19.711Z,44.40
2018-06-11T04:40:24.540Z,44.40
2018-06-11T04:41:29.392Z,44.50
2018-06-11T04:42:34.480Z,44.50
2018-06-11T04:43:39.340Z,45.10
2018-06-11T04:44:44.269Z,44.60
2018-06-11T04:45:49.662Z,44.60
2018-06-11T04:46:54.527Z,44.60
2018-06-11T04:47:59.419Z,44.60
2018-06-11T04:49:05.236Z,44.70
2018-06-11T04:50:10.044Z,44.80
2018-06-11T04:51:15.034Z,44.80
2018-06-11T04:52:20.407Z,44.80
2018-06-11T04:53:25.302Z,44.80
2018-06-11T04:54:31.621Z,44.70
2018-06-11T04:55:36.427Z,44.70
2018-06-11T04:56:41.445Z,44.90
2018-06-11T04:57:46.469Z,44.90
2018-06-11T04:58:51.438Z,44.90
2018-06-11T04:59:56.503Z,44.90
2018-06-11T05:01:02.260Z,44.90
2018-06-11T05:02:07.080Z,44.90
2018-06-11T05:03:11.941Z,44.90
2018-06-11T05:04:17.234Z,44.90
2018-06-11T05:05:22.108Z,44.80
2018-06-11T05:06:27.078Z,44.80
2018-06-11T05:07:32.013Z,44.70
2018-06-11T05:10:22.705Z,44.70
2018-06-11T05:11:27.645Z,44.60
2018-06-11T05:12:33.320Z,44.60
2018-06-11T05:13:38.418Z,44.50
2018-06-11T05:14:43.384Z,44.40
2018-06-11T05:15:48.438Z,44.40
2018-06-11T05:16:53.452Z,44.10
2018-06-11T05:17:58.361Z,44.20
2018-06-11T05:19:03.613Z,44.10
2018-06-11T05:20:08.596Z,44.00
2018-06-11T05:21:14.210Z,44.00
2018-06-11T05:22:19.399Z,44.10
2018-06-11T05:23:24.510Z,43.90
2018-06-11T05:24:29.558Z,43.90
2018-06-11T05:25:34.630Z,43.70
2018-06-11T05:26:39.529Z,43.70
2018-06-11T05:27:44.595Z,43.70
2018-06-11T05:28:49.593Z,43.60
2018-06-11T05:29:54.509Z,43.60
2018-06-11T05:30:59.427Z,43.40
2018-06-11T05:32:05.014Z,43.30
2018-06-11T05:33:09.985Z,43.30
2018-06-11T05:34:15.000Z,43.00
2018-06-11T05:35:19.972Z,43.00
2018-06-11T05:36:24.922Z,42.90
2018-06-11T05:37:29.914Z,42.90
2018-06-11T05:38:34.985Z,42.70
2018-06-11T05:39:41.369Z,42.70
2018-06-11T05:40:46.339Z,42.70
2018-06-11T05:41:51.374Z,42.80
2018-06-11T05:42:56.491Z,42.80
2018-06-11T05:44:01.580Z,42.80
2018-06-11T05:45:06.618Z,43.00
2018-06-11T05:46:12.223Z,43.10
2018-06-11T05:47:21.779Z,43.10
2018-06-11T05:48:27.534Z,43.10
2018-06-11T05:49:35.813Z,43.20
2018-06-11T05:50:42.345Z,43.20
2018-06-11T05:51:47.386Z,43.30
2018-06-11T05:52:52.413Z,43.20
2018-06-11T05:53:57.554Z,43.20
2018-06-11T05:55:02.532Z,43.10
2018-06-11T05:56:07.388Z,43.20
2018-06-11T05:57:12.201Z,43.10
2018-06-11T05:58:17.180Z,43.10
2018-06-11T05:59:22.067Z,43.10
2018-06-11T06:00:27.646Z,43.10
2018-06-11T06:01:32.602Z,43.00
2018-06-11T06:02:37.514Z,42.90
2018-06-11T06:03:42.396Z,43.00
2018-06-11T06:04:47.353Z,42.90
2018-06-11T06:05:52.769Z,42.90
2018-06-11T06:06:57.644Z,42.90
2018-06-11T06:08:02.699Z,42.90
2018-06-11T06:09:08.266Z,42.90
2018-06-11T06:10:13.184Z,42.80
2018-06-11T06:11:18.262Z,43.00
2018-06-11T06:12:23.306Z,43.00
2018-06-11T06:13:28.258Z,43.00
2018-06-11T06:14:33.246Z,43.00
2018-06-11T06:15:38.268Z,43.00
2018-06-11T06:16:43.259Z,42.90
2018-06-11T06:17:48.170Z,42.90
2018-06-11T06:18:53.232Z,42.80
2018-06-11T06:19:59.249Z,42.90
2018-06-11T06:21:04.351Z,42.90
2018-06-11T06:22:09.172Z,42.90
2018-06-11T06:23:14.058Z,42.90
2018-06-11T06:24:19.098Z,42.90
2018-06-11T06:25:23.988Z,42.80
2018-06-11T06:26:28.898Z,42.90
2018-06-11T06:27:33.849Z,42.90
2018-06-11T06:28:38.738Z,42.90
2018-06-11T06:29:43.556Z,42.90
2018-06-11T06:30:48.493Z,42.90
2018-06-11T06:31:53.555Z,42.90
2018-06-11T06:32:58.546Z,42.80
2018-06-11T06:34:03.622Z,42.90
2018-06-11T06:35:08.493Z,42.80
2018-06-11T06:36:13.500Z,42.70
2018-06-11T06:37:18.527Z,42.70
2018-06-11T06:38:23.435Z,42.70
2018-06-11T06:39:28.438Z,42.60
2018-06-11T06:40:33.427Z,42.70
2018-06-11T06:41:38.800Z,42.70
2018-06-11T06:42:43.879Z,42.60
2018-06-11T06:43:48.878Z,42.60
2018-06-11T06:44:53.841Z,42.50
2018-06-11T06:45:58.835Z,42.60
2018-06-11T06:47:03.867Z,42.60
2018-06-11T06:48:08.781Z,42.50
2018-06-11T06:49:13.786Z,42.50
2018-06-11T06:50:18.789Z,42.50
2018-06-11T06:51:23.781Z,42.50
2018-06-11T06:52:28.701Z,42.50
2018-06-11T06:53:33.575Z,42.40
2018-06-11T06:54:38.589Z,42.40
2018-06-11T06:55:43.480Z,42.40
2018-06-11T06:56:48.429Z,42.30
2018-06-11T06:57:53.392Z,42.20
2018-06-11T06:59:01.103Z,42.30
2018-06-11T07:00:07.283Z,42.30
2018-06-11T07:01:12.315Z,42.20
2018-06-11T07:02:17.261Z,42.20
2018-06-11T07:03:24.219Z,42.20
2018-06-11T07:04:29.052Z,42.20
2018-06-11T07:05:33.989Z,42.30
2018-06-11T07:06:38.899Z,42.30
2018-06-11T07:07:44.551Z,42.80
2018-06-11T07:08:49.502Z,42.20
2018-06-11T07:09:54.356Z,42.10
2018-06-11T07:10:59.282Z,42.10
2018-06-11T07:12:04.204Z,42.20
2018-06-11T07:13:09.178Z,42.30
2018-06-11T07:14:14.168Z,42.30
2018-06-11T07:15:19.177Z,42.40
2018-06-11T07:16:24.139Z,42.40
2018-06-11T07:17:29.132Z,42.40
2018-06-11T07:18:34.064Z,42.30
2018-06-11T07:19:38.975Z,42.40
2018-06-11T07:20:43.993Z,42.40
2018-06-11T07:21:48.992Z,42.30
2018-06-11T07:22:54.045Z,42.40
2018-06-11T07:23:59.165Z,42.30
2018-06-11T07:25:04.255Z,42.30
2018-06-11T07:26:09.098Z,42.30
2018-06-11T07:27:14.304Z,42.30
2018-06-11T07:28:19.218Z,42.30
2018-06-11T07:29:24.058Z,42.30
2018-06-11T07:30:29.375Z,42.20
2018-06-11T07:31:34.242Z,42.30
2018-06-11T07:32:39.160Z,42.20
2018-06-11T07:33:44.782Z,42.10
2018-06-11T07:34:49.761Z,42.20
2018-06-11T07:35:54.612Z,42.10
2018-06-11T07:36:59.870Z,42.20
2018-06-11T07:38:04.820Z,42.20
2018-06-11T07:39:09.746Z,42.20
2018-06-11T07:40:14.669Z,42.20
2018-06-11T07:41:20.511Z,42.20
2018-06-11T07:42:25.571Z,42.20
2018-06-11T07:43:30.430Z,42.30
2018-06-11T07:44:35.632Z,42.30
2018-06-11T07:45:40.626Z,42.30
2018-06-11T07:46:45.822Z,42.30
2018-06-11T07:47:50.798Z,42.40
2018-06-11T07:48:55.905Z,42.30
2018-06-11T07:50:01.307Z,42.30
2018-06-11T07:51:06.276Z,42.40
2018-06-11T07:52:11.245Z,42.40
2018-06-11T07:53:16.133Z,42.40
2018-06-11T07:54:21.061Z,42.50
2018-06-11T07:55:25.996Z,42.50
2018-06-11T07:56:30.872Z,42.50
2018-06-11T07:57:35.835Z,42.50
2018-06-11T07:58:40.849Z,42.60
2018-06-11T07:59:45.858Z,42.60
2018-06-11T08:00:50.844Z,42.80
2018-06-11T08:01:55.781Z,42.60
2018-06-11T08:03:00.785Z,42.60
2018-06-11T08:04:05.694Z,42.70
2018-06-11T08:05:10.883Z,42.60
2018-06-11T08:06:15.733Z,42.70
2018-06-11T08:07:20.776Z,42.60
2018-06-11T08:08:25.721Z,42.60
2018-06-11T08:09:30.689Z,42.60
2018-06-11T08:10:35.669Z,42.60
2018-06-11T08:11:40.709Z,42.70
2018-06-11T08:12:46.260Z,42.70
2018-06-11T08:13:51.131Z,42.70
2018-06-11T08:14:56.242Z,42.70
2018-06-11T08:16:01.414Z,42.90
2018-06-11T08:17:06.335Z,42.90
2018-06-11T08:18:11.258Z,42.90
2018-06-11T08:19:16.232Z,42.90
2018-06-11T08:20:21.369Z,42.90
2018-06-11T08:21:26.341Z,42.80
2018-06-11T08:22:31.318Z,42.80
2018-06-11T08:23:36.160Z,42.80
2018-06-11T08:24:41.192Z,42.70
2018-06-11T08:25:46.140Z,42.60
2018-06-11T08:26:51.016Z,42.60
2018-06-11T08:27:55.915Z,42.60
2018-06-11T08:29:01.344Z,42.50
2018-06-11T08:30:06.176Z,42.50
2018-06-11T08:31:11.142Z,42.50
2018-06-11T08:32:16.083Z,43.10
2018-06-11T08:33:20.978Z,42.40
2018-06-11T08:34:26.087Z,42.50
2018-06-11T08:35:31.060Z,42.50
2018-06-11T08:36:36.011Z,42.40
2018-06-11T08:37:41.021Z,42.40
2018-06-11T08:38:45.948Z,42.40
2018-06-11T08:39:51.569Z,42.40
2018-06-11T08:40:56.638Z,42.40
2018-06-11T08:42:01.744Z,42.40
2018-06-11T08:43:06.906Z,42.40
2018-06-11T08:44:12.059Z,42.40
2018-06-11T08:45:17.031Z,42.40
2018-06-11T08:46:22.203Z,42.40
2018-06-11T08:47:27.360Z,42.40
2018-06-11T08:48:32.408Z,42.30
2018-06-11T08:49:37.450Z,42.40
2018-06-11T08:50:42.435Z,42.40
2018-06-11T08:51:47.550Z,42.30
2018-06-11T08:52:52.601Z,42.30
2018-06-11T08:53:57.657Z,42.40
2018-06-11T08:55:02.788Z,42.30
2018-06-11T08:56:09.379Z,42.30
2018-06-11T08:57:14.438Z,42.30
2018-06-11T08:58:20.062Z,42.30
2018-06-11T08:59:25.042Z,42.30
2018-06-11T09:00:30.167Z,42.30
2018-06-11T09:01:35.856Z,42.30
2018-06-11T09:02:40.933Z,42.30
2018-06-11T09:03:49.093Z,42.20
2018-06-11T09:04:56.053Z,42.30
2018-06-11T09:06:01.667Z,42.30
2018-06-11T09:07:06.684Z,42.30
2018-06-11T09:08:11.714Z,42.30
2018-06-11T09:09:16.652Z,42.30
2018-06-11T09:10:21.693Z,42.30
2018-06-11T09:11:26.655Z,42.30
2018-06-11T09:12:31.742Z,42.30
2018-06-11T09:13:36.770Z,42.40
2018-06-11T09:14:41.693Z,42.30
2018-06-11T09:15:46.694Z,42.30
2018-06-11T09:16:51.739Z,42.40
2018-06-11T09:17:56.964Z,42.40
2018-06-11T09:19:01.918Z,42.40
2018-06-11T09:20:07.038Z,42.30
2018-06-11T09:21:11.916Z,42.30
2018-06-11T09:22:17.857Z,42.30
2018-06-11T09:23:22.779Z,42.30
2018-06-11T09:24:27.756Z,42.30
2018-06-11T09:25:32.745Z,42.30
2018-06-11T09:26:37.680Z,42.30
2018-06-11T09:27:42.730Z,42.40
2018-06-11T09:28:47.730Z,42.40
2018-06-11T09:29:52.731Z,42.40
2018-06-11T09:30:57.771Z,42.40
2018-06-11T09:32:02.669Z,42.40
2018-06-11T09:33:07.626Z,42.40
2018-06-11T09:34:13.266Z,42.40
2018-06-11T09:35:18.286Z,42.40
2018-06-11T09:36:23.322Z,42.40
2018-06-11T09:37:28.326Z,42.40
2018-06-11T09:38:33.350Z,42.40
2018-06-11T09:39:38.397Z,42.40
2018-06-11T09:40:43.371Z,42.50
2018-06-11T09:41:49.269Z,42.40
2018-06-11T09:42:54.355Z,42.40
2018-06-11T09:43:59.540Z,42.40
2018-06-11T09:45:04.483Z,42.40
2018-06-11T09:46:09.523Z,42.50
2018-06-11T09:47:14.570Z,42.50
2018-06-11T09:48:19.524Z,42.50
2018-06-11T09:49:24.513Z,42.50
2018-06-11T09:50:30.056Z,42.40
2018-06-11T09:51:35.080Z,42.50
2018-06-11T09:52:40.053Z,42.60
2018-06-11T09:53:45.107Z,42.60
2018-06-11T09:54:50.105Z,42.50
2018-06-11T09:55:55.036Z,42.50
2018-06-11T09:57:00.023Z,42.50
2018-06-11T09:58:04.941Z,42.50
2018-06-11T09:59:09.891Z,42.50
2018-06-11T10:00:14.848Z,42.50
2018-06-11T10:01:19.794Z,42.50
2018-06-11T10:02:24.921Z,42.50
2018-06-11T10:03:29.951Z,42.60
2018-06-11T10:04:34.882Z,42.60
2018-06-11T10:05:39.918Z,42.50
2018-06-11T10:06:44.873Z,42.50
2018-06-11T10:07:49.918Z,42.50
2018-06-11T10:08:55.026Z,42.60
2018-06-11T10:10:00.110Z,43.20
2018-06-11T10:11:05.248Z,42.50
2018-06-11T10:12:11.143Z,42.40
2018-06-11T10:13:16.181Z,42.40
2018-06-11T10:14:21.890Z,42.40
2018-06-11T10:15:26.982Z,42.40
2018-06-11T10:16:33.611Z,42.40
2018-06-11T10:19:01.351Z,42.40
2018-06-11T10:20:06.424Z,42.40
2018-06-11T10:21:11.324Z,42.40
2018-06-11T10:22:16.181Z,42.40
2018-06-11T10:23:21.180Z,42.40
2018-06-11T10:24:26.126Z,42.40
2018-06-11T10:25:30.970Z,42.40
2018-06-11T10:26:36.320Z,42.40
2018-06-11T10:27:41.294Z,42.40
2018-06-11T10:28:46.227Z,42.40
2018-06-11T10:29:51.195Z,42.40
2018-06-11T10:30:56.776Z,42.40
2018-06-11T10:32:02.148Z,42.40
2018-06-11T10:33:07.074Z,42.40
2018-06-11T10:34:11.997Z,42.40
2018-06-11T10:35:16.937Z,42.40
2018-06-11T10:36:21.891Z,42.40
2018-06-11T10:37:26.765Z,42.40
2018-06-11T10:38:31.905Z,42.40
2018-06-11T10:39:37.021Z,42.50
2018-06-11T10:40:42.050Z,42.50
2018-06-11T10:41:47.050Z,42.50
2018-06-11T10:42:52.168Z,42.50
2018-06-11T10:43:57.321Z,42.50
2018-06-11T10:45:06.193Z,42.60
2018-06-11T10:46:11.326Z,42.60
2018-06-11T10:47:16.305Z,42.60
2018-06-11T10:48:21.353Z,42.60
2018-06-11T10:49:26.337Z,42.60
2018-06-11T10:50:31.903Z,42.60
2018-06-11T10:51:37.016Z,42.80
2018-06-11T10:52:42.144Z,42.80
2018-06-11T10:53:48.582Z,42.70
2018-06-11T10:54:53.543Z,42.70
2018-06-11T10:55:58.851Z,42.70
2018-06-11T10:57:04.322Z,42.70
2018-06-11T10:58:10.276Z,42.70
2018-06-11T10:59:15.815Z,42.80
2018-06-11T11:00:21.435Z,42.80
2018-06-11T11:01:27.391Z,42.80
2018-06-11T11:02:34.652Z,42.70
2018-06-11T11:03:40.663Z,42.70
2018-06-11T11:04:46.590Z,42.70
2018-06-11T11:05:54.456Z,42.70
2018-06-11T11:06:59.749Z,42.70
2018-06-11T11:08:05.423Z,42.80
2018-06-11T11:09:18.811Z,42.80
2018-06-11T11:10:26.352Z,42.70
2018-06-11T11:11:32.065Z,42.70
2018-06-11T11:12:37.969Z,42.80
2018-06-11T11:13:43.567Z,42.80
2018-06-11T11:14:49.542Z,42.90
2018-06-11T11:15:55.352Z,42.90
2018-06-11T11:17:00.916Z,42.90
2018-06-11T11:18:06.711Z,42.80
2018-06-11T11:19:13.067Z,43.00
2018-06-11T11:20:18.531Z,43.00
2018-06-11T11:21:26.736Z,43.00
2018-06-11T11:22:34.540Z,43.00
2018-06-11T11:23:42.685Z,43.00
2018-06-11T11:24:49.423Z,43.10
2018-06-11T11:25:55.624Z,43.10
2018-06-11T11:27:01.545Z,43.10
2018-06-11T11:28:07.317Z,43.10
2018-06-11T11:29:13.854Z,43.10
2018-06-11T11:30:19.702Z,43.10
2018-06-11T11:31:25.223Z,43.10
2018-06-11T11:32:34.506Z,43.20
2018-06-11T11:33:40.677Z,43.20
2018-06-11T11:34:46.580Z,43.20
2018-06-11T11:35:56.597Z,43.20
2018-06-11T11:37:02.735Z,43.20
2018-06-11T11:38:07.773Z,43.20
2018-06-11T11:39:12.935Z,43.20
2018-06-11T11:40:18.486Z,43.20
2018-06-11T11:41:23.650Z,43.20
2018-06-11T11:42:29.244Z,43.30
2018-06-11T11:43:35.083Z,43.30
2018-06-11T11:44:40.161Z,43.30
2018-06-11T11:45:45.204Z,43.30
2018-06-11T11:46:50.805Z,43.30
2018-06-11T11:47:55.861Z,43.30
2018-06-11T11:49:01.035Z,43.30
2018-06-11T11:50:06.063Z,43.30
2018-06-11T11:51:11.306Z,43.30
2018-06-11T11:52:16.490Z,43.30
2018-06-11T11:53:21.455Z,43.30
2018-06-11T11:54:26.572Z,43.30
2018-06-11T11:55:31.771Z,43.30
2018-06-11T11:57:55.881Z,43.30
2018-06-11T11:59:13.385Z,43.30
2018-06-11T12:00:18.372Z,43.30
2018-06-11T12:01:23.495Z,43.30
2018-06-11T12:02:28.425Z,43.30
2018-06-11T12:03:36.752Z,43.30
2018-06-11T12:04:42.067Z,43.20
2018-06-11T12:05:47.059Z,43.20
2018-06-11T12:06:52.091Z,43.20
2018-06-11T12:07:57.266Z,43.10
2018-06-11T12:09:02.282Z,43.20
2018-06-11T12:10:07.466Z,43.20
2018-06-11T12:11:12.640Z,43.30
2018-06-11T12:12:17.514Z,43.30
2018-06-11T12:13:22.657Z,43.20
2018-06-11T12:14:30.809Z,43.20
2018-06-11T12:15:36.657Z,43.20
2018-06-11T12:16:41.666Z,43.30
2018-06-11T12:17:46.672Z,43.30
2018-06-11T12:18:51.846Z,43.30
2018-06-11T12:19:56.853Z,43.30
2018-06-11T12:21:01.785Z,43.30
2018-06-11T12:22:06.977Z,43.30
2018-06-11T12:23:12.221Z,43.30
2018-06-11T12:24:21.733Z,43.30
2018-06-11T12:25:26.722Z,43.30
2018-06-11T12:26:31.609Z,43.40
2018-06-11T12:27:36.454Z,43.30
2018-06-11T12:28:41.390Z,43.40
2018-06-11T12:29:46.478Z,43.30
2018-06-11T12:30:51.563Z,43.30
2018-06-11T12:31:56.827Z,43.30
2018-06-11T12:33:02.139Z,43.40
2018-06-11T12:34:07.345Z,43.40
2018-06-11T12:35:12.216Z,43.30
2018-06-11T12:36:17.202Z,43.30
2018-06-11T12:37:22.324Z,43.40
2018-06-11T12:38:27.283Z,43.40
2018-06-11T12:39:32.182Z,43.40
2018-06-11T12:40:37.188Z,43.40
2018-06-11T12:41:42.695Z,43.40
2018-06-11T12:42:47.776Z,43.40
2018-06-11T12:43:52.825Z,43.40
2018-06-11T12:44:57.843Z,43.40
2018-06-11T12:46:02.689Z,43.40
2018-06-11T12:47:08.141Z,43.40
2018-06-11T12:48:13.577Z,43.40
2018-06-11T12:49:19.313Z,43.40
2018-06-11T12:50:24.252Z,43.50
2018-06-11T12:51:30.168Z,43.50
2018-06-11T12:52:35.931Z,43.50
2018-06-11T12:53:41.039Z,43.50
2018-06-11T12:54:47.235Z,43.50
2018-06-11T12:55:52.529Z,43.50
2018-06-11T12:56:57.470Z,43.50
2018-06-11T12:58:02.563Z,43.50
2018-06-11T12:59:07.404Z,43.50
2018-06-11T13:00:12.462Z,43.60
2018-06-11T13:01:17.395Z,43.60
2018-06-11T13:02:22.370Z,43.50
2018-06-11T13:03:27.878Z,43.50
2018-06-11T13:04:32.950Z,43.50
2018-06-11T13:05:38.022Z,43.50
2018-06-11T13:06:43.179Z,43.50
2018-06-11T13:07:48.226Z,43.50
2018-06-11T13:08:53.345Z,43.60
2018-06-11T13:09:58.314Z,43.50
2018-06-11T13:11:03.323Z,43.60
2018-06-11T13:12:08.275Z,43.50
2018-06-11T13:13:13.324Z,43.60
2018-06-11T13:14:18.780Z,43.60
2018-06-11T13:15:23.774Z,43.60
2018-06-11T13:16:28.687Z,43.60
2018-06-11T13:17:33.622Z,43.50
2018-06-11T13:18:38.657Z,43.50
2018-06-11T13:19:43.785Z,43.50
2018-06-11T13:20:49.479Z,43.50
2018-06-11T13:21:54.566Z,43.50
2018-06-11T13:23:00.711Z,43.50
2018-06-11T13:24:05.938Z,43.50
2018-06-11T13:25:11.070Z,43.50
2018-06-11T13:26:16.129Z,43.40
2018-06-11T13:27:21.270Z,43.40
2018-06-11T13:28:26.739Z,43.40
2018-06-11T13:29:31.727Z,43.40
2018-06-11T13:30:36.865Z,43.40
2018-06-11T13:31:41.821Z,43.50
2018-06-11T13:32:46.783Z,43.40
2018-06-11T13:33:51.830Z,43.40
2018-06-11T13:34:56.857Z,43.40
2018-06-11T13:36:02.046Z,43.40
2018-06-11T13:37:07.176Z,43.40
2018-06-11T13:38:12.095Z,43.40
2018-06-11T13:39:17.049Z,43.40
2018-06-11T13:40:22.117Z,43.40
2018-06-11T13:41:27.031Z,43.40
2018-06-11T13:42:32.061Z,43.40
2018-06-11T13:43:37.072Z,43.50
2018-06-11T13:44:42.068Z,43.40
2018-06-11T13:45:47.074Z,43.40
2018-06-11T13:46:52.215Z,43.40
2018-06-11T13:47:57.387Z,43.50
2018-06-11T13:49:02.597Z,43.40
2018-06-11T13:50:07.911Z,43.40
2018-06-11T13:51:12.988Z,43.40
2018-06-11T13:52:18.050Z,43.40
2018-06-11T13:53:23.256Z,43.40
2018-06-11T13:54:28.406Z,43.40
2018-06-11T13:55:33.818Z,43.40
2018-06-11T13:56:38.807Z,43.40
2018-06-11T13:57:43.831Z,43.40
2018-06-11T13:58:48.866Z,43.40
2018-06-11T13:59:53.904Z,43.40
2018-06-11T14:00:58.888Z,43.40
2018-06-11T14:02:04.025Z,43.40
2018-06-11T14:03:09.245Z,43.40
2018-06-11T14:04:14.598Z,43.30
2018-06-11T14:05:19.826Z,43.30
2018-06-11T14:06:24.996Z,43.30